sensor_id;sensor_type;location;lat;lon;timestamp;P1;durP1;ratioP1;P2;durP2;ratioP2
23384;SDS011;11865;45.394;10.978;2023-08-08T00:00:21;2.38;;;1.13;;
23384;SDS011;11865;45.394;10.978;2023-08-08T00:02:48;2.83;;;1.30;;
23384;SDS011;11865;45.394;10.978;2023-08-08T00:05:16;5.95;;;1.30;;
23384;SDS011;11865;45.394;10.978;2023-08-08T00:07:43;2.35;;;1.05;;
23384;SDS011;11865;45.394;10.978;2023-08-08T00:10:11;3.47;;;1.20;;
23384;SDS011;11865;45.394;10.978;2023-08-08T00:12:38;2.55;;;1.10;;
23384;SDS011;11865;45.394;10.978;2023-08-08T00:15:06;2.60;;;0.95;;
23384;SDS011;11865;45.394;10.978;2023-08-08T00:17:34;3.13;;;1.10;;
23384;SDS011;11865;45.394;10.978;2023-08-08T00:20:02;3.42;;;1.00;;
23384;SDS011;11865;45.394;10.978;2023-08-08T00:22:30;1.50;;;1.10;;
23384;SDS011;11865;45.394;10.978;2023-08-08T00:24:57;2.63;;;1.08;;
23384;SDS011;11865;45.394;10.978;2023-08-08T00:27:25;4.00;;;1.00;;
23384;SDS011;11865;45.394;10.978;2023-08-08T00:29:52;4.55;;;1.30;;
23384;SDS011;11865;45.394;10.978;2023-08-08T00:32:22;3.05;;;1.10;;
23384;SDS011;11865;45.394;10.978;2023-08-08T00:34:50;2.22;;;1.25;;
23384;SDS011;11865;45.394;10.978;2023-08-08T00:37:17;4.45;;;1.10;;
23384;SDS011;11865;45.394;10.978;2023-08-08T00:39:44;2.40;;;1.15;;
23384;SDS011;11865;45.394;10.978;2023-08-08T00:42:13;1.88;;;1.00;;
23384;SDS011;11865;45.394;10.978;2023-08-08T00:44:40;2.25;;;1.20;;
23384;SDS011;11865;45.394;10.978;2023-08-08T00:47:08;1.92;;;1.23;;
23384;SDS011;11865;45.394;10.978;2023-08-08T00:49:37;4.78;;;1.38;;
23384;SDS011;11865;45.394;10.978;2023-08-08T00:52:05;8.80;;;1.48;;
23384;SDS011;11865;45.394;10.978;2023-08-08T00:54:34;4.63;;;1.33;;
23384;SDS011;11865;45.394;10.978;2023-08-08T00:57:01;2.55;;;1.30;;
23384;SDS011;11865;45.394;10.978;2023-08-08T00:59:29;2.28;;;1.15;;
23384;SDS011;11865;45.394;10.978;2023-08-08T01:01:57;5.45;;;1.50;;
23384;SDS011;11865;45.394;10.978;2023-08-08T01:04:26;4.35;;;1.00;;
23384;SDS011;11865;45.394;10.978;2023-08-08T01:07:08;5.60;;;1.20;;
23384;SDS011;11865;45.394;10.978;2023-08-08T01:12:39;3.80;;;1.50;;
23384;SDS011;11865;45.394;10.978;2023-08-08T01:15:12;4.28;;;1.00;;
23384;SDS011;11865;45.394;10.978;2023-08-08T01:17:41;8.32;;;1.30;;
23384;SDS011;11865;45.394;10.978;2023-08-08T01:20:10;2.50;;;1.17;;
23384;SDS011;11865;45.394;10.978;2023-08-08T01:25:38;3.75;;;1.10;;
23384;SDS011;11865;45.394;10.978;2023-08-08T01:28:07;4.80;;;1.08;;
23384;SDS011;11865;45.394;10.978;2023-08-08T01:30:35;3.30;;;1.40;;
23384;SDS011;11865;45.394;10.978;2023-08-08T01:33:03;2.65;;;1.05;;
23384;SDS011;11865;45.394;10.978;2023-08-08T01:35:32;2.95;;;1.20;;
23384;SDS011;11865;45.394;10.978;2023-08-08T01:38:28;3.55;;;1.30;;
23384;SDS011;11865;45.394;10.978;2023-08-08T01:40:57;3.67;;;1.15;;
23384;SDS011;11865;45.394;10.978;2023-08-08T01:43:27;2.67;;;1.13;;
23384;SDS011;11865;45.394;10.978;2023-08-08T01:45:58;2.95;;;1.42;;
23384;SDS011;11865;45.394;10.978;2023-08-08T01:48:27;2.03;;;1.00;;
23384;SDS011;11865;45.394;10.978;2023-08-08T01:50:55;6.60;;;1.10;;
23384;SDS011;11865;45.394;10.978;2023-08-08T01:53:23;4.20;;;1.35;;
23384;SDS011;11865;45.394;10.978;2023-08-08T01:55:50;1.92;;;1.00;;
23384;SDS011;11865;45.394;10.978;2023-08-08T01:58:19;4.07;;;1.23;;
23384;SDS011;11865;45.394;10.978;2023-08-08T02:00:46;2.20;;;1.08;;
23384;SDS011;11865;45.394;10.978;2023-08-08T02:03:14;1.83;;;1.08;;
23384;SDS011;11865;45.394;10.978;2023-08-08T02:05:42;3.45;;;1.13;;
23384;SDS011;11865;45.394;10.978;2023-08-08T02:08:10;6.30;;;2.80;;
23384;SDS011;11865;45.394;10.978;2023-08-08T02:10:37;7.03;;;1.48;;
23384;SDS011;11865;45.394;10.978;2023-08-08T02:13:05;1.70;;;0.80;;
23384;SDS011;11865;45.394;10.978;2023-08-08T02:15:33;3.25;;;0.90;;
23384;SDS011;11865;45.394;10.978;2023-08-08T02:18:00;1.85;;;0.90;;
23384;SDS011;11865;45.394;10.978;2023-08-08T02:20:29;4.97;;;1.17;;
23384;SDS011;11865;45.394;10.978;2023-08-08T02:22:57;3.30;;;1.08;;
23384;SDS011;11865;45.394;10.978;2023-08-08T02:25:25;2.15;;;1.70;;
23384;SDS011;11865;45.394;10.978;2023-08-08T02:27:52;1.38;;;0.95;;
23384;SDS011;11865;45.394;10.978;2023-08-08T02:30:20;1.45;;;0.98;;
23384;SDS011;11865;45.394;10.978;2023-08-08T02:32:47;3.20;;;1.23;;
23384;SDS011;11865;45.394;10.978;2023-08-08T02:35:15;3.25;;;1.20;;
23384;SDS011;11865;45.394;10.978;2023-08-08T02:37:42;4.28;;;1.10;;
23384;SDS011;11865;45.394;10.978;2023-08-08T02:40:10;2.67;;;1.15;;
23384;SDS011;11865;45.394;10.978;2023-08-08T02:42:38;1.20;;;1.10;;
23384;SDS011;11865;45.394;10.978;2023-08-08T02:45:06;1.83;;;1.00;;
23384;SDS011;11865;45.394;10.978;2023-08-08T02:47:35;4.75;;;1.55;;
23384;SDS011;11865;45.394;10.978;2023-08-08T02:50:03;2.03;;;1.10;;
23384;SDS011;11865;45.394;10.978;2023-08-08T02:52:31;5.10;;;1.00;;
23384;SDS011;11865;45.394;10.978;2023-08-08T02:54:59;2.63;;;1.00;;
23384;SDS011;11865;45.394;10.978;2023-08-08T02:57:26;2.17;;;1.23;;
23384;SDS011;11865;45.394;10.978;2023-08-08T02:59:55;1.83;;;0.93;;
23384;SDS011;11865;45.394;10.978;2023-08-08T03:02:22;3.28;;;1.20;;
23384;SDS011;11865;45.394;10.978;2023-08-08T03:04:51;2.55;;;1.10;;
23384;SDS011;11865;45.394;10.978;2023-08-08T03:07:22;2.45;;;1.00;;
23384;SDS011;11865;45.394;10.978;2023-08-08T03:09:49;4.47;;;1.15;;
23384;SDS011;11865;45.394;10.978;2023-08-08T03:12:17;2.00;;;1.25;;
23384;SDS011;11865;45.394;10.978;2023-08-08T03:14:45;4.72;;;1.08;;
23384;SDS011;11865;45.394;10.978;2023-08-08T03:17:12;1.05;;;0.80;;
23384;SDS011;11865;45.394;10.978;2023-08-08T03:19:41;2.08;;;1.20;;
23384;SDS011;11865;45.394;10.978;2023-08-08T03:22:09;1.77;;;1.08;;
23384;SDS011;11865;45.394;10.978;2023-08-08T03:24:37;2.45;;;1.08;;
23384;SDS011;11865;45.394;10.978;2023-08-08T03:27:05;7.40;;;1.35;;
23384;SDS011;11865;45.394;10.978;2023-08-08T03:29:33;4.45;;;1.08;;
23384;SDS011;11865;45.394;10.978;2023-08-08T03:32:01;2.85;;;1.20;;
23384;SDS011;11865;45.394;10.978;2023-08-08T03:34:31;5.28;;;1.20;;
23384;SDS011;11865;45.394;10.978;2023-08-08T03:36:59;1.10;;;0.93;;
23384;SDS011;11865;45.394;10.978;2023-08-08T03:39:27;3.70;;;1.00;;
23384;SDS011;11865;45.394;10.978;2023-08-08T03:41:55;3.25;;;1.35;;
23384;SDS011;11865;45.394;10.978;2023-08-08T03:44:23;3.33;;;1.20;;
23384;SDS011;11865;45.394;10.978;2023-08-08T03:46:50;4.90;;;1.50;;
23384;SDS011;11865;45.394;10.978;2023-08-08T03:49:25;2.53;;;1.60;;
23384;SDS011;11865;45.394;10.978;2023-08-08T03:51:53;3.92;;;1.30;;
23384;SDS011;11865;45.394;10.978;2023-08-08T03:54:20;3.20;;;1.50;;
23384;SDS011;11865;45.394;10.978;2023-08-08T03:56:48;3.22;;;1.60;;
23384;SDS011;11865;45.394;10.978;2023-08-08T03:59:16;6.75;;;2.17;;
23384;SDS011;11865;45.394;10.978;2023-08-08T04:01:43;2.92;;;1.55;;
23384;SDS011;11865;45.394;10.978;2023-08-08T04:04:11;7.45;;;1.90;;
23384;SDS011;11865;45.394;10.978;2023-08-08T04:06:39;2.22;;;1.00;;
23384;SDS011;11865;45.394;10.978;2023-08-08T04:09:07;8.32;;;1.40;;
23384;SDS011;11865;45.394;10.978;2023-08-08T04:11:34;4.15;;;1.63;;
23384;SDS011;11865;45.394;10.978;2023-08-08T04:14:02;3.97;;;1.30;;
23384;SDS011;11865;45.394;10.978;2023-08-08T04:16:30;7.47;;;1.60;;
23384;SDS011;11865;45.394;10.978;2023-08-08T04:18:58;6.30;;;2.55;;
23384;SDS011;11865;45.394;10.978;2023-08-08T04:21:26;5.43;;;1.40;;
23384;SDS011;11865;45.394;10.978;2023-08-08T04:23:56;5.75;;;1.05;;
23384;SDS011;11865;45.394;10.978;2023-08-08T04:26:23;2.42;;;1.20;;
23384;SDS011;11865;45.394;10.978;2023-08-08T04:28:51;2.63;;;1.50;;
23384;SDS011;11865;45.394;10.978;2023-08-08T04:31:19;4.15;;;1.70;;
23384;SDS011;11865;45.394;10.978;2023-08-08T04:33:46;3.40;;;1.23;;
23384;SDS011;11865;45.394;10.978;2023-08-08T04:36:14;3.67;;;1.08;;
23384;SDS011;11865;45.394;10.978;2023-08-08T04:38:42;2.00;;;1.50;;
23384;SDS011;11865;45.394;10.978;2023-08-08T04:41:09;4.18;;;1.40;;
23384;SDS011;11865;45.394;10.978;2023-08-08T04:43:37;4.13;;;1.20;;
23384;SDS011;11865;45.394;10.978;2023-08-08T04:46:04;2.45;;;1.17;;
23384;SDS011;11865;45.394;10.978;2023-08-08T04:48:32;2.13;;;0.93;;
23384;SDS011;11865;45.394;10.978;2023-08-08T04:51:00;8.05;;;1.70;;
23384;SDS011;11865;45.394;10.978;2023-08-08T04:53:27;7.03;;;1.40;;
23384;SDS011;11865;45.394;10.978;2023-08-08T04:55:55;6.00;;;1.85;;
23384;SDS011;11865;45.394;10.978;2023-08-08T04:58:22;4.68;;;1.73;;
23384;SDS011;11865;45.394;10.978;2023-08-08T05:00:50;5.65;;;1.52;;
23384;SDS011;11865;45.394;10.978;2023-08-08T05:03:18;12.48;;;1.90;;
23384;SDS011;11865;45.394;10.978;2023-08-08T05:05:45;16.35;;;2.70;;
23384;SDS011;11865;45.394;10.978;2023-08-08T05:08:13;16.70;;;2.70;;
23384;SDS011;11865;45.394;10.978;2023-08-08T05:10:41;11.15;;;1.67;;
23384;SDS011;11865;45.394;10.978;2023-08-08T05:13:09;13.20;;;2.25;;
23384;SDS011;11865;45.394;10.978;2023-08-08T05:15:37;15.13;;;2.10;;
23384;SDS011;11865;45.394;10.978;2023-08-08T05:18:04;13.40;;;2.42;;
23384;SDS011;11865;45.394;10.978;2023-08-08T05:20:32;17.15;;;2.35;;
23384;SDS011;11865;45.394;10.978;2023-08-08T05:23:00;13.23;;;1.80;;
23384;SDS011;11865;45.394;10.978;2023-08-08T05:25:27;10.45;;;1.75;;
23384;SDS011;11865;45.394;10.978;2023-08-08T05:27:55;13.07;;;2.17;;
23384;SDS011;11865;45.394;10.978;2023-08-08T05:30:22;12.25;;;1.80;;
23384;SDS011;11865;45.394;10.978;2023-08-08T05:32:50;9.45;;;1.50;;
23384;SDS011;11865;45.394;10.978;2023-08-08T05:35:18;6.57;;;1.23;;
23384;SDS011;11865;45.394;10.978;2023-08-08T05:37:45;6.70;;;1.40;;
23384;SDS011;11865;45.394;10.978;2023-08-08T05:40:13;11.45;;;1.95;;
23384;SDS011;11865;45.394;10.978;2023-08-08T05:42:41;13.05;;;2.17;;
23384;SDS011;11865;45.394;10.978;2023-08-08T05:45:08;8.18;;;1.58;;
23384;SDS011;11865;45.394;10.978;2023-08-08T05:47:36;8.80;;;1.50;;
23384;SDS011;11865;45.394;10.978;2023-08-08T05:50:04;12.10;;;1.70;;
23384;SDS011;11865;45.394;10.978;2023-08-08T05:52:32;16.83;;;2.45;;
23384;SDS011;11865;45.394;10.978;2023-08-08T05:55:00;13.35;;;2.05;;
23384;SDS011;11865;45.394;10.978;2023-08-08T05:57:27;19.35;;;2.17;;
23384;SDS011;11865;45.394;10.978;2023-08-08T05:59:55;9.65;;;2.05;;
23384;SDS011;11865;45.394;10.978;2023-08-08T06:02:23;9.85;;;2.33;;
23384;SDS011;11865;45.394;10.978;2023-08-08T06:04:51;15.23;;;2.97;;
23384;SDS011;11865;45.394;10.978;2023-08-08T06:07:18;20.67;;;4.18;;
23384;SDS011;11865;45.394;10.978;2023-08-08T06:09:46;25.08;;;3.35;;
23384;SDS011;11865;45.394;10.978;2023-08-08T06:12:13;18.30;;;3.63;;
23384;SDS011;11865;45.394;10.978;2023-08-08T06:14:41;27.73;;;4.10;;
23384;SDS011;11865;45.394;10.978;2023-08-08T06:17:09;18.83;;;3.85;;
23384;SDS011;11865;45.394;10.978;2023-08-08T06:19:36;13.38;;;3.67;;
23384;SDS011;11865;45.394;10.978;2023-08-08T06:22:04;12.68;;;3.00;;
23384;SDS011;11865;45.394;10.978;2023-08-08T06:24:32;10.50;;;2.55;;
23384;SDS011;11865;45.394;10.978;2023-08-08T06:26:59;8.93;;;2.60;;
23384;SDS011;11865;45.394;10.978;2023-08-08T06:29:27;9.98;;;0.80;;
23384;SDS011;11865;45.394;10.978;2023-08-08T06:31:55;2.72;;;1.00;;
23384;SDS011;11865;45.394;10.978;2023-08-08T06:34:22;2.13;;;1.20;;
23384;SDS011;11865;45.394;10.978;2023-08-08T06:36:50;2.15;;;0.40;;
23384;SDS011;11865;45.394;10.978;2023-08-08T06:39:17;3.10;;;0.90;;
23384;SDS011;11865;45.394;10.978;2023-08-08T06:41:48;3.35;;;0.70;;
23384;SDS011;11865;45.394;10.978;2023-08-08T06:44:19;1.73;;;1.05;;
23384;SDS011;11865;45.394;10.978;2023-08-08T06:46:48;4.00;;;0.80;;
23384;SDS011;11865;45.394;10.978;2023-08-08T06:49:15;4.30;;;0.80;;
23384;SDS011;11865;45.394;10.978;2023-08-08T06:51:43;1.75;;;0.80;;
23384;SDS011;11865;45.394;10.978;2023-08-08T06:54:10;3.15;;;1.15;;
23384;SDS011;11865;45.394;10.978;2023-08-08T06:56:38;1.33;;;1.10;;
23384;SDS011;11865;45.394;10.978;2023-08-08T06:59:05;2.13;;;0.85;;
23384;SDS011;11865;45.394;10.978;2023-08-08T07:01:33;2.17;;;1.20;;
23384;SDS011;11865;45.394;10.978;2023-08-08T07:04:01;2.50;;;0.70;;
23384;SDS011;11865;45.394;10.978;2023-08-08T07:06:28;2.20;;;0.80;;
23384;SDS011;11865;45.394;10.978;2023-08-08T07:08:56;4.28;;;1.20;;
23384;SDS011;11865;45.394;10.978;2023-08-08T07:11:23;0.73;;;0.50;;
23384;SDS011;11865;45.394;10.978;2023-08-08T07:13:52;3.08;;;0.80;;
23384;SDS011;11865;45.394;10.978;2023-08-08T07:16:19;5.95;;;1.85;;
23384;SDS011;11865;45.394;10.978;2023-08-08T07:18:47;0.93;;;0.80;;
23384;SDS011;11865;45.394;10.978;2023-08-08T07:21:16;7.53;;;1.50;;
23384;SDS011;11865;45.394;10.978;2023-08-08T07:23:44;1.45;;;0.70;;
23384;SDS011;11865;45.394;10.978;2023-08-08T07:26:11;2.97;;;0.95;;
23384;SDS011;11865;45.394;10.978;2023-08-08T07:28:39;2.83;;;1.05;;
23384;SDS011;11865;45.394;10.978;2023-08-08T07:31:06;2.67;;;0.70;;
23384;SDS011;11865;45.394;10.978;2023-08-08T07:33:34;4.00;;;1.42;;
23384;SDS011;11865;45.394;10.978;2023-08-08T07:36:01;4.07;;;0.80;;
23384;SDS011;11865;45.394;10.978;2023-08-08T07:38:29;1.00;;;0.80;;
23384;SDS011;11865;45.394;10.978;2023-08-08T07:40:56;2.88;;;0.82;;
23384;SDS011;11865;45.394;10.978;2023-08-08T07:43:24;5.18;;;0.75;;
23384;SDS011;11865;45.394;10.978;2023-08-08T07:45:51;3.10;;;1.00;;
23384;SDS011;11865;45.394;10.978;2023-08-08T07:48:19;1.30;;;0.82;;
23384;SDS011;11865;45.394;10.978;2023-08-08T07:50:47;2.30;;;0.95;;
23384;SDS011;11865;45.394;10.978;2023-08-08T07:53:14;7.88;;;1.23;;
23384;SDS011;11865;45.394;10.978;2023-08-08T07:55:42;1.67;;;0.90;;
23384;SDS011;11865;45.394;10.978;2023-08-08T07:58:09;3.08;;;0.80;;
23384;SDS011;11865;45.394;10.978;2023-08-08T08:00:37;1.23;;;0.73;;
23384;SDS011;11865;45.394;10.978;2023-08-08T08:03:05;0.82;;;0.60;;
23384;SDS011;11865;45.394;10.978;2023-08-08T08:05:33;4.03;;;0.90;;
23384;SDS011;11865;45.394;10.978;2023-08-08T08:08:01;1.33;;;1.10;;
23384;SDS011;11865;45.394;10.978;2023-08-08T08:10:29;4.75;;;1.17;;
23384;SDS011;11865;45.394;10.978;2023-08-08T08:12:57;3.25;;;0.82;;
23384;SDS011;11865;45.394;10.978;2023-08-08T08:15:25;13.48;;;2.90;;
23384;SDS011;11865;45.394;10.978;2023-08-08T08:17:53;2.92;;;0.90;;
23384;SDS011;11865;45.394;10.978;2023-08-08T08:20:21;7.75;;;2.45;;
23384;SDS011;11865;45.394;10.978;2023-08-08T08:22:49;3.65;;;0.88;;
23384;SDS011;11865;45.394;10.978;2023-08-08T08:25:16;1.10;;;0.80;;
23384;SDS011;11865;45.394;10.978;2023-08-08T08:27:44;2.20;;;0.70;;
23384;SDS011;11865;45.394;10.978;2023-08-08T08:30:11;0.85;;;0.80;;
23384;SDS011;11865;45.394;10.978;2023-08-08T08:32:39;5.80;;;1.00;;
23384;SDS011;11865;45.394;10.978;2023-08-08T08:35:08;1.85;;;0.70;;
23384;SDS011;11865;45.394;10.978;2023-08-08T08:37:36;2.33;;;1.20;;
23384;SDS011;11865;45.394;10.978;2023-08-08T08:40:04;1.55;;;0.90;;
23384;SDS011;11865;45.394;10.978;2023-08-08T08:42:32;1.25;;;0.80;;
23384;SDS011;11865;45.394;10.978;2023-08-08T08:45:01;1.15;;;0.70;;
23384;SDS011;11865;45.394;10.978;2023-08-08T08:47:30;6.85;;;0.88;;
23384;SDS011;11865;45.394;10.978;2023-08-08T08:49:58;3.78;;;0.88;;
23384;SDS011;11865;45.394;10.978;2023-08-08T08:52:28;8.80;;;1.20;;
23384;SDS011;11865;45.394;10.978;2023-08-08T08:54:55;2.65;;;1.00;;
23384;SDS011;11865;45.394;10.978;2023-08-08T08:57:24;6.38;;;1.40;;
23384;SDS011;11865;45.394;10.978;2023-08-08T08:59:51;1.73;;;0.85;;
23384;SDS011;11865;45.394;10.978;2023-08-08T09:02:19;1.85;;;1.10;;
23384;SDS011;11865;45.394;10.978;2023-08-08T09:04:48;1.60;;;0.90;;
23384;SDS011;11865;45.394;10.978;2023-08-08T09:07:16;2.72;;;0.90;;
23384;SDS011;11865;45.394;10.978;2023-08-08T09:09:47;4.72;;;1.17;;
23384;SDS011;11865;45.394;10.978;2023-08-08T09:12:15;2.40;;;0.90;;
23384;SDS011;11865;45.394;10.978;2023-08-08T09:14:45;4.28;;;1.67;;
23384;SDS011;11865;45.394;10.978;2023-08-08T09:17:13;0.80;;;0.80;;
23384;SDS011;11865;45.394;10.978;2023-08-08T09:19:44;3.00;;;0.80;;
23384;SDS011;11865;45.394;10.978;2023-08-08T09:22:14;2.92;;;0.77;;
23384;SDS011;11865;45.394;10.978;2023-08-08T09:24:42;1.40;;;0.80;;
23384;SDS011;11865;45.394;10.978;2023-08-08T09:27:10;1.95;;;1.02;;
23384;SDS011;11865;45.394;10.978;2023-08-08T09:29:37;4.35;;;0.77;;
23384;SDS011;11865;45.394;10.978;2023-08-08T09:32:05;1.00;;;0.80;;
23384;SDS011;11865;45.394;10.978;2023-08-08T09:34:33;1.50;;;0.73;;
23384;SDS011;11865;45.394;10.978;2023-08-08T09:37:01;8.15;;;2.33;;
23384;SDS011;11865;45.394;10.978;2023-08-08T09:39:30;4.03;;;0.90;;
23384;SDS011;11865;45.394;10.978;2023-08-08T09:41:58;6.32;;;1.65;;
23384;SDS011;11865;45.394;10.978;2023-08-08T09:44:26;2.13;;;0.82;;
23384;SDS011;11865;45.394;10.978;2023-08-08T09:46:56;3.05;;;1.10;;
23384;SDS011;11865;45.394;10.978;2023-08-08T09:49:24;1.60;;;0.75;;
23384;SDS011;11865;45.394;10.978;2023-08-08T09:51:52;2.55;;;1.00;;
23384;SDS011;11865;45.394;10.978;2023-08-08T09:54:21;2.42;;;0.80;;
23384;SDS011;11865;45.394;10.978;2023-08-08T09:56:50;5.25;;;1.30;;
23384;SDS011;11865;45.394;10.978;2023-08-08T09:59:18;1.15;;;0.70;;
23384;SDS011;11865;45.394;10.978;2023-08-08T10:01:47;3.05;;;0.93;;
23384;SDS011;11865;45.394;10.978;2023-08-08T10:04:15;2.08;;;0.90;;
23384;SDS011;11865;45.394;10.978;2023-08-08T10:06:43;5.88;;;1.45;;
23384;SDS011;11865;45.394;10.978;2023-08-08T10:09:10;3.15;;;1.20;;
23384;SDS011;11865;45.394;10.978;2023-08-08T10:11:39;7.07;;;1.90;;
23384;SDS011;11865;45.394;10.978;2023-08-08T10:14:09;2.63;;;1.52;;
23384;SDS011;11865;45.394;10.978;2023-08-08T10:16:38;1.63;;;0.82;;
23384;SDS011;11865;45.394;10.978;2023-08-08T10:19:05;2.63;;;0.70;;
23384;SDS011;11865;45.394;10.978;2023-08-08T10:21:34;1.15;;;0.73;;
23384;SDS011;11865;45.394;10.978;2023-08-08T10:24:04;5.65;;;1.00;;
23384;SDS011;11865;45.394;10.978;2023-08-08T10:29:27;1.77;;;0.93;;
23384;SDS011;11865;45.394;10.978;2023-08-08T10:32:00;4.72;;;1.50;;
23384;SDS011;11865;45.394;10.978;2023-08-08T10:34:36;2.70;;;1.00;;
23384;SDS011;11865;45.394;10.978;2023-08-08T10:40:03;3.35;;;1.17;;
23384;SDS011;11865;45.394;10.978;2023-08-08T10:42:42;3.72;;;1.02;;
23384;SDS011;11865;45.394;10.978;2023-08-08T10:45:12;2.50;;;1.10;;
23384;SDS011;11865;45.394;10.978;2023-08-08T10:47:41;4.05;;;1.50;;
23384;SDS011;11865;45.394;10.978;2023-08-08T10:50:10;2.90;;;1.80;;
23384;SDS011;11865;45.394;10.978;2023-08-08T10:58:04;2.60;;;1.00;;
23384;SDS011;11865;45.394;10.978;2023-08-08T11:00:33;5.70;;;1.30;;
23384;SDS011;11865;45.394;10.978;2023-08-08T11:03:06;5.57;;;1.35;;
23384;SDS011;11865;45.394;10.978;2023-08-08T11:05:37;2.00;;;0.70;;
23384;SDS011;11865;45.394;10.978;2023-08-08T11:08:05;3.40;;;1.10;;
23384;SDS011;11865;45.394;10.978;2023-08-08T11:10:35;3.05;;;0.93;;
23384;SDS011;11865;45.394;10.978;2023-08-08T11:13:04;2.22;;;0.80;;
23384;SDS011;11865;45.394;10.978;2023-08-08T11:15:33;2.55;;;0.98;;
23384;SDS011;11865;45.394;10.978;2023-08-08T11:18:02;1.65;;;1.00;;
23384;SDS011;11865;45.394;10.978;2023-08-08T11:20:31;2.38;;;1.60;;
23384;SDS011;11865;45.394;10.978;2023-08-08T11:23:00;1.67;;;0.90;;
23384;SDS011;11865;45.394;10.978;2023-08-08T11:25:29;2.13;;;1.10;;
23384;SDS011;11865;45.394;10.978;2023-08-08T11:27:57;5.60;;;1.45;;
23384;SDS011;11865;45.394;10.978;2023-08-08T11:30:30;3.70;;;1.20;;
23384;SDS011;11865;45.394;10.978;2023-08-08T11:33:01;2.70;;;0.80;;
23384;SDS011;11865;45.394;10.978;2023-08-08T11:35:31;2.58;;;1.45;;
23384;SDS011;11865;45.394;10.978;2023-08-08T11:38:00;1.63;;;0.90;;
23384;SDS011;11865;45.394;10.978;2023-08-08T11:40:29;1.23;;;0.93;;
23384;SDS011;11865;45.394;10.978;2023-08-08T11:42:58;15.77;;;3.58;;
23384;SDS011;11865;45.394;10.978;2023-08-08T11:45:26;4.97;;;1.90;;
23384;SDS011;11865;45.394;10.978;2023-08-08T11:47:55;3.58;;;1.35;;
23384;SDS011;11865;45.394;10.978;2023-08-08T11:50:23;2.72;;;1.10;;
23384;SDS011;11865;45.394;10.978;2023-08-08T11:52:54;3.17;;;1.10;;
23384;SDS011;11865;45.394;10.978;2023-08-08T11:55:29;1.75;;;1.10;;
23384;SDS011;11865;45.394;10.978;2023-08-08T11:57:57;2.17;;;1.02;;
23384;SDS011;11865;45.394;10.978;2023-08-08T12:00:28;2.75;;;1.20;;
23384;SDS011;11865;45.394;10.978;2023-08-08T12:02:58;1.50;;;0.90;;
23384;SDS011;11865;45.394;10.978;2023-08-08T12:05:28;6.50;;;1.00;;
23384;SDS011;11865;45.394;10.978;2023-08-08T12:07:58;3.35;;;0.95;;
23384;SDS011;11865;45.394;10.978;2023-08-08T12:10:25;3.00;;;1.20;;
23384;SDS011;11865;45.394;10.978;2023-08-08T12:12:54;1.35;;;0.82;;
23384;SDS011;11865;45.394;10.978;2023-08-08T12:15:31;0.85;;;0.80;;
23384;SDS011;11865;45.394;10.978;2023-08-08T12:18:02;2.55;;;0.80;;
23384;SDS011;11865;45.394;10.978;2023-08-08T12:20:30;14.32;;;2.13;;
23384;SDS011;11865;45.394;10.978;2023-08-08T12:22:58;1.95;;;1.00;;
23384;SDS011;11865;45.394;10.978;2023-08-08T12:25:26;1.73;;;1.00;;
23384;SDS011;11865;45.394;10.978;2023-08-08T12:27:54;1.35;;;1.10;;
23384;SDS011;11865;45.394;10.978;2023-08-08T12:30:22;2.28;;;1.02;;
23384;SDS011;11865;45.394;10.978;2023-08-08T12:32:49;1.92;;;0.80;;
23384;SDS011;11865;45.394;10.978;2023-08-08T12:35:17;1.80;;;1.15;;
23384;SDS011;11865;45.394;10.978;2023-08-08T12:37:44;1.33;;;1.05;;
23384;SDS011;11865;45.394;10.978;2023-08-08T12:40:12;3.20;;;1.17;;
23384;SDS011;11865;45.394;10.978;2023-08-08T12:42:40;3.17;;;1.27;;
23384;SDS011;11865;45.394;10.978;2023-08-08T12:45:07;3.10;;;0.90;;
23384;SDS011;11865;45.394;10.978;2023-08-08T12:47:36;1.42;;;1.00;;
23384;SDS011;11865;45.394;10.978;2023-08-08T12:50:04;4.90;;;1.05;;
23384;SDS011;11865;45.394;10.978;2023-08-08T12:52:33;7.40;;;2.30;;
23384;SDS011;11865;45.394;10.978;2023-08-08T12:55:01;4.93;;;1.42;;
23384;SDS011;11865;45.394;10.978;2023-08-08T12:57:30;9.15;;;2.40;;
23384;SDS011;11865;45.394;10.978;2023-08-08T12:59:57;1.50;;;1.00;;
23384;SDS011;11865;45.394;10.978;2023-08-08T13:02:25;3.97;;;0.93;;
23384;SDS011;11865;45.394;10.978;2023-08-08T13:04:52;1.60;;;0.95;;
23384;SDS011;11865;45.394;10.978;2023-08-08T13:07:20;3.65;;;1.10;;
23384;SDS011;11865;45.394;10.978;2023-08-08T13:09:48;3.05;;;1.10;;
23384;SDS011;11865;45.394;10.978;2023-08-08T13:12:15;2.58;;;1.58;;
23384;SDS011;11865;45.394;10.978;2023-08-08T13:14:42;3.83;;;1.20;;
23384;SDS011;11865;45.394;10.978;2023-08-08T13:17:10;6.10;;;1.95;;
23384;SDS011;11865;45.394;10.978;2023-08-08T13:19:37;3.35;;;1.00;;
23384;SDS011;11865;45.394;10.978;2023-08-08T13:22:05;1.40;;;1.08;;
23384;SDS011;11865;45.394;10.978;2023-08-08T13:24:33;2.72;;;1.20;;
23384;SDS011;11865;45.394;10.978;2023-08-08T13:27:00;6.60;;;1.10;;
23384;SDS011;11865;45.394;10.978;2023-08-08T13:29:28;3.35;;;1.13;;
23384;SDS011;11865;45.394;10.978;2023-08-08T13:31:55;2.88;;;1.02;;
23384;SDS011;11865;45.394;10.978;2023-08-08T13:34:23;2.75;;;1.25;;
23384;SDS011;11865;45.394;10.978;2023-08-08T13:36:50;1.80;;;1.40;;
23384;SDS011;11865;45.394;10.978;2023-08-08T13:39:18;3.75;;;1.38;;
23384;SDS011;11865;45.394;10.978;2023-08-08T13:41:45;2.80;;;1.40;;
23384;SDS011;11865;45.394;10.978;2023-08-08T13:44:13;4.03;;;1.15;;
23384;SDS011;11865;45.394;10.978;2023-08-08T13:46:40;1.95;;;1.00;;
23384;SDS011;11865;45.394;10.978;2023-08-08T13:49:08;1.25;;;1.10;;
23384;SDS011;11865;45.394;10.978;2023-08-08T13:51:35;3.70;;;1.25;;
23384;SDS011;11865;45.394;10.978;2023-08-08T13:54:03;2.05;;;1.00;;
23384;SDS011;11865;45.394;10.978;2023-08-08T13:56:31;1.63;;;0.95;;
23384;SDS011;11865;45.394;10.978;2023-08-08T13:58:58;2.92;;;1.20;;
23384;SDS011;11865;45.394;10.978;2023-08-08T14:01:26;2.88;;;1.30;;
23384;SDS011;11865;45.394;10.978;2023-08-08T14:03:53;6.90;;;2.45;;
23384;SDS011;11865;45.394;10.978;2023-08-08T14:06:21;3.20;;;1.38;;
23384;SDS011;11865;45.394;10.978;2023-08-08T14:08:48;3.17;;;1.25;;
23384;SDS011;11865;45.394;10.978;2023-08-08T14:11:16;2.70;;;1.17;;
23384;SDS011;11865;45.394;10.978;2023-08-08T14:13:43;3.17;;;1.40;;
23384;SDS011;11865;45.394;10.978;2023-08-08T14:16:11;3.30;;;1.48;;
23384;SDS011;11865;45.394;10.978;2023-08-08T14:18:39;3.25;;;1.38;;
23384;SDS011;11865;45.394;10.978;2023-08-08T14:21:06;3.08;;;1.33;;
23384;SDS011;11865;45.394;10.978;2023-08-08T14:23:34;6.13;;;1.10;;
23384;SDS011;11865;45.394;10.978;2023-08-08T14:26:01;5.22;;;1.23;;
23384;SDS011;11865;45.394;10.978;2023-08-08T14:28:29;2.95;;;1.10;;
23384;SDS011;11865;45.394;10.978;2023-08-08T14:30:56;2.40;;;1.48;;
23384;SDS011;11865;45.394;10.978;2023-08-08T14:33:24;2.60;;;1.25;;
23384;SDS011;11865;45.394;10.978;2023-08-08T14:35:51;2.17;;;1.25;;
23384;SDS011;11865;45.394;10.978;2023-08-08T14:38:23;2.38;;;0.98;;
23384;SDS011;11865;45.394;10.978;2023-08-08T14:40:51;1.70;;;1.27;;
23384;SDS011;11865;45.394;10.978;2023-08-08T14:43:21;2.42;;;1.20;;
23384;SDS011;11865;45.394;10.978;2023-08-08T14:45:50;1.85;;;1.38;;
23384;SDS011;11865;45.394;10.978;2023-08-08T14:48:17;3.90;;;1.52;;
23384;SDS011;11865;45.394;10.978;2023-08-08T14:50:45;3.88;;;1.40;;
23384;SDS011;11865;45.394;10.978;2023-08-08T14:53:12;1.73;;;1.30;;
23384;SDS011;11865;45.394;10.978;2023-08-08T14:55:40;2.28;;;1.27;;